Terminal Aerodrome Forecast
Issued by NWS

Home | Current Version | Previous Version | Text Only | Print | Product List | Glossary On
Versions: 1 2 3 4 5 6 7 8 9 10 11 12 13 14
000
FTUS45 KTFX 240500
TAFHLN
TAF
KHLN 240533Z 2406/2506 26015G25KT P6SM VCSH OVC050
     FM240900 28010KT P6SM BKN060
     FM241600 27010KT P6SM SCT050 SCT090=

USA.gov is the U.S. government's official web portal to all federal, state and local government web resources and services.